sensor_id;sensor_type;location;lat;lon;timestamp;P1;durP1;ratioP1;P2;durP2;ratioP2
25409;SDS011;13339;50.840;4.346;2023-06-19T00:02:05;10.23;;;5.07;;
25409;SDS011;13339;50.840;4.346;2023-06-19T00:04:31;6.10;;;4.67;;
25409;SDS011;13339;50.840;4.346;2023-06-19T00:06:57;6.57;;;5.10;;
25409;SDS011;13339;50.840;4.346;2023-06-19T00:09:24;8.13;;;5.27;;
25409;SDS011;13339;50.840;4.346;2023-06-19T00:11:50;5.30;;;4.50;;
25409;SDS011;13339;50.840;4.346;2023-06-19T00:14:16;8.03;;;5.30;;
25409;SDS011;13339;50.840;4.346;2023-06-19T00:16:42;8.80;;;4.77;;
25409;SDS011;13339;50.840;4.346;2023-06-19T00:19:08;7.53;;;4.90;;
25409;SDS011;13339;50.840;4.346;2023-06-19T00:21:35;6.57;;;4.20;;
25409;SDS011;13339;50.840;4.346;2023-06-19T00:24:02;8.17;;;4.53;;
25409;SDS011;13339;50.840;4.346;2023-06-19T00:26:29;4.80;;;4.30;;
25409;SDS011;13339;50.840;4.346;2023-06-19T00:28:55;8.20;;;4.63;;
25409;SDS011;13339;50.840;4.346;2023-06-19T00:31:20;8.70;;;4.70;;
25409;SDS011;13339;50.840;4.346;2023-06-19T00:33:46;7.97;;;4.20;;
25409;SDS011;13339;50.840;4.346;2023-06-19T00:36:16;7.57;;;4.27;;
25409;SDS011;13339;50.840;4.346;2023-06-19T00:38:46;9.93;;;4.30;;
25409;SDS011;13339;50.840;4.346;2023-06-19T00:41:12;5.80;;;4.30;;
25409;SDS011;13339;50.840;4.346;2023-06-19T00:43:39;6.33;;;4.47;;
25409;SDS011;13339;50.840;4.346;2023-06-19T00:46:05;6.87;;;4.10;;
25409;SDS011;13339;50.840;4.346;2023-06-19T00:48:31;5.77;;;3.70;;
25409;SDS011;13339;50.840;4.346;2023-06-19T00:50:58;8.00;;;4.77;;
25409;SDS011;13339;50.840;4.346;2023-06-19T00:53:25;4.70;;;4.20;;
25409;SDS011;13339;50.840;4.346;2023-06-19T00:55:51;5.73;;;4.27;;
25409;SDS011;13339;50.840;4.346;2023-06-19T00:58:21;6.03;;;4.60;;
25409;SDS011;13339;50.840;4.346;2023-06-19T01:00:47;6.17;;;4.13;;
25409;SDS011;13339;50.840;4.346;2023-06-19T01:03:13;5.67;;;4.03;;
25409;SDS011;13339;50.840;4.346;2023-06-19T01:05:39;6.17;;;4.57;;
25409;SDS011;13339;50.840;4.346;2023-06-19T01:08:10;7.63;;;4.10;;
25409;SDS011;13339;50.840;4.346;2023-06-19T01:11:00;6.33;;;4.07;;
25409;SDS011;13339;50.840;4.346;2023-06-19T01:16:02;7.70;;;4.60;;
25409;SDS011;13339;50.840;4.346;2023-06-19T01:18:29;7.50;;;4.33;;
25409;SDS011;13339;50.840;4.346;2023-06-19T01:20:56;9.50;;;4.87;;
25409;SDS011;13339;50.840;4.346;2023-06-19T01:23:33;8.50;;;4.57;;
25409;SDS011;13339;50.840;4.346;2023-06-19T01:25:58;8.57;;;4.83;;
25409;SDS011;13339;50.840;4.346;2023-06-19T01:28:24;7.10;;;4.60;;
25409;SDS011;13339;50.840;4.346;2023-06-19T01:30:51;10.30;;;4.97;;
25409;SDS011;13339;50.840;4.346;2023-06-19T01:33:20;6.67;;;4.33;;
25409;SDS011;13339;50.840;4.346;2023-06-19T01:35:53;6.87;;;4.70;;
25409;SDS011;13339;50.840;4.346;2023-06-19T01:38:21;7.27;;;4.90;;
25409;SDS011;13339;50.840;4.346;2023-06-19T01:40:50;5.30;;;4.60;;
25409;SDS011;13339;50.840;4.346;2023-06-19T01:43:19;7.63;;;4.63;;
25409;SDS011;13339;50.840;4.346;2023-06-19T01:45:45;9.50;;;4.83;;
25409;SDS011;13339;50.840;4.346;2023-06-19T01:48:11;6.40;;;4.63;;
25409;SDS011;13339;50.840;4.346;2023-06-19T01:50:37;10.10;;;5.13;;
25409;SDS011;13339;50.840;4.346;2023-06-19T01:53:03;13.27;;;5.17;;
25409;SDS011;13339;50.840;4.346;2023-06-19T01:55:28;10.80;;;5.40;;
25409;SDS011;13339;50.840;4.346;2023-06-19T01:57:54;11.60;;;5.63;;
25409;SDS011;13339;50.840;4.346;2023-06-19T02:00:20;8.63;;;5.13;;
25409;SDS011;13339;50.840;4.346;2023-06-19T02:02:46;10.67;;;5.50;;
25409;SDS011;13339;50.840;4.346;2023-06-19T02:05:13;8.67;;;5.10;;
25409;SDS011;13339;50.840;4.346;2023-06-19T02:07:39;10.20;;;4.90;;
25409;SDS011;13339;50.840;4.346;2023-06-19T02:10:05;7.27;;;4.90;;
25409;SDS011;13339;50.840;4.346;2023-06-19T02:12:31;11.13;;;5.07;;
25409;SDS011;13339;50.840;4.346;2023-06-19T02:14:56;15.57;;;5.47;;
25409;SDS011;13339;50.840;4.346;2023-06-19T02:17:22;10.27;;;5.30;;
25409;SDS011;13339;50.840;4.346;2023-06-19T02:19:48;7.20;;;5.40;;
25409;SDS011;13339;50.840;4.346;2023-06-19T02:22:13;8.37;;;5.37;;
25409;SDS011;13339;50.840;4.346;2023-06-19T02:24:39;9.47;;;5.70;;
25409;SDS011;13339;50.840;4.346;2023-06-19T02:27:05;11.43;;;5.13;;
25409;SDS011;13339;50.840;4.346;2023-06-19T02:29:31;12.93;;;5.70;;
25409;SDS011;13339;50.840;4.346;2023-06-19T02:31:58;7.33;;;5.70;;
25409;SDS011;13339;50.840;4.346;2023-06-19T02:34:24;9.07;;;5.80;;
25409;SDS011;13339;50.840;4.346;2023-06-19T02:36:50;7.70;;;5.70;;
25409;SDS011;13339;50.840;4.346;2023-06-19T02:39:16;9.70;;;5.57;;
25409;SDS011;13339;50.840;4.346;2023-06-19T02:41:42;11.40;;;5.67;;
25409;SDS011;13339;50.840;4.346;2023-06-19T02:44:10;10.53;;;6.20;;
25409;SDS011;13339;50.840;4.346;2023-06-19T02:46:37;7.43;;;6.07;;
25409;SDS011;13339;50.840;4.346;2023-06-19T02:49:02;9.27;;;6.27;;
25409;SDS011;13339;50.840;4.346;2023-06-19T02:51:28;11.20;;;5.87;;
25409;SDS011;13339;50.840;4.346;2023-06-19T02:53:54;7.67;;;6.53;;
25409;SDS011;13339;50.840;4.346;2023-06-19T02:56:19;10.23;;;7.30;;
25409;SDS011;13339;50.840;4.346;2023-06-19T02:58:45;10.27;;;6.83;;
25409;SDS011;13339;50.840;4.346;2023-06-19T03:01:10;8.93;;;7.80;;
25409;SDS011;13339;50.840;4.346;2023-06-19T03:03:36;13.33;;;7.70;;
25409;SDS011;13339;50.840;4.346;2023-06-19T03:06:05;9.40;;;7.77;;
25409;SDS011;13339;50.840;4.346;2023-06-19T03:08:35;12.00;;;7.93;;
25409;SDS011;13339;50.840;4.346;2023-06-19T03:11:01;11.50;;;7.83;;
25409;SDS011;13339;50.840;4.346;2023-06-19T03:13:29;8.40;;;7.20;;
25409;SDS011;13339;50.840;4.346;2023-06-19T03:16:09;9.07;;;7.60;;
25409;SDS011;13339;50.840;4.346;2023-06-19T03:18:34;16.20;;;8.20;;
25409;SDS011;13339;50.840;4.346;2023-06-19T03:21:00;11.10;;;7.73;;
25409;SDS011;13339;50.840;4.346;2023-06-19T03:23:25;9.93;;;7.80;;
25409;SDS011;13339;50.840;4.346;2023-06-19T03:25:51;11.87;;;7.73;;
25409;SDS011;13339;50.840;4.346;2023-06-19T03:28:17;14.87;;;7.40;;
25409;SDS011;13339;50.840;4.346;2023-06-19T03:30:42;13.00;;;7.83;;
25409;SDS011;13339;50.840;4.346;2023-06-19T03:33:08;10.93;;;8.03;;
25409;SDS011;13339;50.840;4.346;2023-06-19T03:35:33;11.93;;;8.00;;
25409;SDS011;13339;50.840;4.346;2023-06-19T03:37:59;8.93;;;8.03;;
25409;SDS011;13339;50.840;4.346;2023-06-19T03:40:24;8.97;;;8.13;;
25409;SDS011;13339;50.840;4.346;2023-06-19T03:42:50;13.97;;;10.47;;
25409;SDS011;13339;50.840;4.346;2023-06-19T03:45:16;11.77;;;10.13;;
25409;SDS011;13339;50.840;4.346;2023-06-19T03:47:41;12.30;;;10.40;;
25409;SDS011;13339;50.840;4.346;2023-06-19T03:50:07;13.23;;;11.30;;
25409;SDS011;13339;50.840;4.346;2023-06-19T03:52:35;12.07;;;10.33;;
25409;SDS011;13339;50.840;4.346;2023-06-19T03:55:02;13.90;;;10.50;;
25409;SDS011;13339;50.840;4.346;2023-06-19T03:57:28;12.13;;;10.83;;
25409;SDS011;13339;50.840;4.346;2023-06-19T03:59:54;11.93;;;8.93;;
25409;SDS011;13339;50.840;4.346;2023-06-19T04:02:19;10.83;;;8.40;;
25409;SDS011;13339;50.840;4.346;2023-06-19T04:04:45;11.17;;;8.10;;
25409;SDS011;13339;50.840;4.346;2023-06-19T04:07:11;13.17;;;7.93;;
25409;SDS011;13339;50.840;4.346;2023-06-19T04:09:37;12.77;;;8.67;;
25409;SDS011;13339;50.840;4.346;2023-06-19T04:12:03;11.87;;;8.47;;
25409;SDS011;13339;50.840;4.346;2023-06-19T04:14:29;8.97;;;8.00;;
25409;SDS011;13339;50.840;4.346;2023-06-19T04:16:54;10.70;;;8.10;;
25409;SDS011;13339;50.840;4.346;2023-06-19T04:19:20;10.70;;;8.10;;
25409;SDS011;13339;50.840;4.346;2023-06-19T04:21:45;10.47;;;7.30;;
25409;SDS011;13339;50.840;4.346;2023-06-19T04:24:11;9.00;;;7.50;;
25409;SDS011;13339;50.840;4.346;2023-06-19T04:26:37;9.90;;;8.50;;
25409;SDS011;13339;50.840;4.346;2023-06-19T04:29:02;10.37;;;8.17;;
25409;SDS011;13339;50.840;4.346;2023-06-19T04:31:28;12.20;;;8.60;;
25409;SDS011;13339;50.840;4.346;2023-06-19T04:33:55;9.03;;;8.13;;
25409;SDS011;13339;50.840;4.346;2023-06-19T04:36:21;11.47;;;9.43;;
25409;SDS011;13339;50.840;4.346;2023-06-19T04:38:47;11.97;;;8.30;;
25409;SDS011;13339;50.840;4.346;2023-06-19T04:41:13;11.43;;;8.83;;
25409;SDS011;13339;50.840;4.346;2023-06-19T04:43:39;14.40;;;10.60;;
25409;SDS011;13339;50.840;4.346;2023-06-19T04:46:06;17.30;;;10.07;;
25409;SDS011;13339;50.840;4.346;2023-06-19T04:48:32;15.87;;;10.80;;
25409;SDS011;13339;50.840;4.346;2023-06-19T04:51:00;13.10;;;9.40;;
25409;SDS011;13339;50.840;4.346;2023-06-19T04:53:26;13.63;;;10.77;;
25409;SDS011;13339;50.840;4.346;2023-06-19T04:55:52;13.70;;;11.43;;
25409;SDS011;13339;50.840;4.346;2023-06-19T04:58:20;13.67;;;9.57;;
25409;SDS011;13339;50.840;4.346;2023-06-19T05:00:48;16.97;;;10.50;;
25409;SDS011;13339;50.840;4.346;2023-06-19T05:03:17;13.87;;;11.30;;
25409;SDS011;13339;50.840;4.346;2023-06-19T05:05:44;18.03;;;10.70;;
25409;SDS011;13339;50.840;4.346;2023-06-19T05:08:10;15.20;;;11.27;;
25409;SDS011;13339;50.840;4.346;2023-06-19T05:10:35;14.97;;;11.13;;
25409;SDS011;13339;50.840;4.346;2023-06-19T05:13:01;12.83;;;11.10;;
25409;SDS011;13339;50.840;4.346;2023-06-19T05:15:27;10.83;;;8.83;;
25409;SDS011;13339;50.840;4.346;2023-06-19T05:17:53;13.57;;;9.63;;
25409;SDS011;13339;50.840;4.346;2023-06-19T05:20:19;15.77;;;11.73;;
25409;SDS011;13339;50.840;4.346;2023-06-19T05:22:45;15.40;;;10.97;;
25409;SDS011;13339;50.840;4.346;2023-06-19T05:25:11;13.30;;;10.90;;
25409;SDS011;13339;50.840;4.346;2023-06-19T05:27:36;13.93;;;10.77;;
25409;SDS011;13339;50.840;4.346;2023-06-19T05:30:02;14.30;;;10.80;;
25409;SDS011;13339;50.840;4.346;2023-06-19T05:32:29;17.73;;;9.83;;
25409;SDS011;13339;50.840;4.346;2023-06-19T05:34:55;16.97;;;13.67;;
25409;SDS011;13339;50.840;4.346;2023-06-19T05:37:21;18.63;;;12.97;;
25409;SDS011;13339;50.840;4.346;2023-06-19T05:39:47;14.93;;;13.33;;
25409;SDS011;13339;50.840;4.346;2023-06-19T05:42:13;16.57;;;13.23;;
25409;SDS011;13339;50.840;4.346;2023-06-19T05:44:39;17.07;;;12.90;;
25409;SDS011;13339;50.840;4.346;2023-06-19T05:47:05;17.90;;;12.27;;
25409;SDS011;13339;50.840;4.346;2023-06-19T05:49:31;23.40;;;13.67;;
25409;SDS011;13339;50.840;4.346;2023-06-19T05:51:56;22.70;;;13.57;;
25409;SDS011;13339;50.840;4.346;2023-06-19T05:54:24;21.00;;;15.53;;
25409;SDS011;13339;50.840;4.346;2023-06-19T05:56:50;18.67;;;13.97;;
25409;SDS011;13339;50.840;4.346;2023-06-19T05:59:16;17.97;;;15.10;;
25409;SDS011;13339;50.840;4.346;2023-06-19T06:01:41;16.43;;;14.37;;
25409;SDS011;13339;50.840;4.346;2023-06-19T06:04:07;17.83;;;14.93;;
25409;SDS011;13339;50.840;4.346;2023-06-19T06:06:32;20.80;;;14.57;;
25409;SDS011;13339;50.840;4.346;2023-06-19T06:08:58;25.70;;;16.30;;
25409;SDS011;13339;50.840;4.346;2023-06-19T06:11:23;25.30;;;16.03;;
25409;SDS011;13339;50.840;4.346;2023-06-19T06:13:49;18.63;;;13.93;;
25409;SDS011;13339;50.840;4.346;2023-06-19T06:16:15;18.27;;;14.37;;
25409;SDS011;13339;50.840;4.346;2023-06-19T06:18:40;18.73;;;14.30;;
25409;SDS011;13339;50.840;4.346;2023-06-19T06:21:06;18.30;;;16.40;;
25409;SDS011;13339;50.840;4.346;2023-06-19T06:23:31;21.63;;;17.37;;
25409;SDS011;13339;50.840;4.346;2023-06-19T06:25:57;23.77;;;19.63;;
25409;SDS011;13339;50.840;4.346;2023-06-19T06:28:27;25.73;;;17.93;;
25409;SDS011;13339;50.840;4.346;2023-06-19T06:30:53;22.23;;;17.33;;
25409;SDS011;13339;50.840;4.346;2023-06-19T06:33:19;17.77;;;15.00;;
25409;SDS011;13339;50.840;4.346;2023-06-19T06:35:45;25.30;;;17.80;;
25409;SDS011;13339;50.840;4.346;2023-06-19T06:38:11;26.17;;;16.30;;
25409;SDS011;13339;50.840;4.346;2023-06-19T06:40:36;20.93;;;16.43;;
25409;SDS011;13339;50.840;4.346;2023-06-19T06:43:02;28.33;;;16.13;;
25409;SDS011;13339;50.840;4.346;2023-06-19T06:45:27;18.87;;;15.20;;
25409;SDS011;13339;50.840;4.346;2023-06-19T06:47:59;22.53;;;15.43;;
25409;SDS011;13339;50.840;4.346;2023-06-19T06:50:27;19.63;;;14.33;;
25409;SDS011;13339;50.840;4.346;2023-06-19T06:52:53;23.77;;;15.90;;
25409;SDS011;13339;50.840;4.346;2023-06-19T06:55:18;17.93;;;15.43;;
25409;SDS011;13339;50.840;4.346;2023-06-19T06:57:44;21.00;;;15.73;;
25409;SDS011;13339;50.840;4.346;2023-06-19T07:00:09;24.57;;;16.73;;
25409;SDS011;13339;50.840;4.346;2023-06-19T07:02:37;25.17;;;18.53;;
25409;SDS011;13339;50.840;4.346;2023-06-19T07:05:04;25.07;;;18.07;;
25409;SDS011;13339;50.840;4.346;2023-06-19T07:07:31;22.23;;;17.00;;
25409;SDS011;13339;50.840;4.346;2023-06-19T07:09:57;25.57;;;16.97;;
25409;SDS011;13339;50.840;4.346;2023-06-19T07:12:22;16.97;;;15.20;;
25409;SDS011;13339;50.840;4.346;2023-06-19T07:14:48;21.23;;;15.13;;
25409;SDS011;13339;50.840;4.346;2023-06-19T07:17:13;19.90;;;14.63;;
25409;SDS011;13339;50.840;4.346;2023-06-19T07:19:39;18.50;;;14.90;;
25409;SDS011;13339;50.840;4.346;2023-06-19T07:22:05;20.97;;;14.73;;
25409;SDS011;13339;50.840;4.346;2023-06-19T07:24:30;15.23;;;13.47;;
25409;SDS011;13339;50.840;4.346;2023-06-19T07:26:56;17.57;;;14.03;;
25409;SDS011;13339;50.840;4.346;2023-06-19T07:29:22;20.23;;;13.70;;
25409;SDS011;13339;50.840;4.346;2023-06-19T07:31:48;17.80;;;13.03;;
25409;SDS011;13339;50.840;4.346;2023-06-19T07:34:13;19.43;;;13.20;;
25409;SDS011;13339;50.840;4.346;2023-06-19T07:36:39;17.40;;;12.77;;
25409;SDS011;13339;50.840;4.346;2023-06-19T07:39:05;23.10;;;12.50;;
25409;SDS011;13339;50.840;4.346;2023-06-19T07:41:30;23.70;;;13.23;;
25409;SDS011;13339;50.840;4.346;2023-06-19T07:43:56;19.00;;;13.20;;
25409;SDS011;13339;50.840;4.346;2023-06-19T07:46:21;18.23;;;12.33;;
25409;SDS011;13339;50.840;4.346;2023-06-19T07:48:47;17.50;;;13.50;;
25409;SDS011;13339;50.840;4.346;2023-06-19T07:51:12;15.13;;;12.30;;
25409;SDS011;13339;50.840;4.346;2023-06-19T07:53:38;16.93;;;12.70;;
25409;SDS011;13339;50.840;4.346;2023-06-19T07:56:04;15.30;;;12.00;;
25409;SDS011;13339;50.840;4.346;2023-06-19T07:58:30;15.77;;;11.97;;
25409;SDS011;13339;50.840;4.346;2023-06-19T08:00:56;15.43;;;11.73;;
25409;SDS011;13339;50.840;4.346;2023-06-19T08:03:21;13.67;;;11.40;;
25409;SDS011;13339;50.840;4.346;2023-06-19T08:05:49;15.17;;;11.20;;
25409;SDS011;13339;50.840;4.346;2023-06-19T08:08:14;20.13;;;11.17;;
25409;SDS011;13339;50.840;4.346;2023-06-19T08:10:40;13.97;;;11.00;;
25409;SDS011;13339;50.840;4.346;2023-06-19T08:13:06;15.70;;;11.07;;
25409;SDS011;13339;50.840;4.346;2023-06-19T08:15:31;12.87;;;11.00;;
25409;SDS011;13339;50.840;4.346;2023-06-19T08:17:57;14.27;;;11.37;;
25409;SDS011;13339;50.840;4.346;2023-06-19T08:20:22;15.60;;;10.67;;
25409;SDS011;13339;50.840;4.346;2023-06-19T08:22:48;13.77;;;10.13;;
25409;SDS011;13339;50.840;4.346;2023-06-19T08:25:14;13.23;;;10.30;;
25409;SDS011;13339;50.840;4.346;2023-06-19T08:27:39;18.03;;;11.20;;
25409;SDS011;13339;50.840;4.346;2023-06-19T08:30:05;13.07;;;11.17;;
25409;SDS011;13339;50.840;4.346;2023-06-19T08:32:32;16.50;;;9.93;;
25409;SDS011;13339;50.840;4.346;2023-06-19T08:34:59;13.40;;;10.03;;
25409;SDS011;13339;50.840;4.346;2023-06-19T08:37:25;13.43;;;10.30;;
25409;SDS011;13339;50.840;4.346;2023-06-19T08:39:50;16.13;;;10.97;;
25409;SDS011;13339;50.840;4.346;2023-06-19T08:42:16;13.80;;;10.17;;
25409;SDS011;13339;50.840;4.346;2023-06-19T08:44:41;19.67;;;9.90;;
25409;SDS011;13339;50.840;4.346;2023-06-19T08:47:07;12.80;;;9.60;;
25409;SDS011;13339;50.840;4.346;2023-06-19T08:49:33;12.47;;;10.37;;
25409;SDS011;13339;50.840;4.346;2023-06-19T08:52:00;13.73;;;9.97;;
25409;SDS011;13339;50.840;4.346;2023-06-19T08:54:27;14.07;;;10.40;;
25409;SDS011;13339;50.840;4.346;2023-06-19T08:56:52;11.67;;;10.33;;
25409;SDS011;13339;50.840;4.346;2023-06-19T08:59:21;15.80;;;10.13;;
25409;SDS011;13339;50.840;4.346;2023-06-19T09:01:47;14.77;;;10.10;;
25409;SDS011;13339;50.840;4.346;2023-06-19T09:04:17;13.60;;;10.03;;
25409;SDS011;13339;50.840;4.346;2023-06-19T09:06:54;13.07;;;10.17;;
25409;SDS011;13339;50.840;4.346;2023-06-19T09:09:22;16.17;;;9.47;;
25409;SDS011;13339;50.840;4.346;2023-06-19T09:12:04;12.60;;;10.50;;
25409;SDS011;13339;50.840;4.346;2023-06-19T09:14:39;15.40;;;10.80;;
25409;SDS011;13339;50.840;4.346;2023-06-19T09:17:06;14.47;;;9.70;;
25409;SDS011;13339;50.840;4.346;2023-06-19T09:19:35;11.60;;;10.00;;
25409;SDS011;13339;50.840;4.346;2023-06-19T09:22:02;19.63;;;10.87;;
25409;SDS011;13339;50.840;4.346;2023-06-19T09:24:35;18.57;;;9.50;;
25409;SDS011;13339;50.840;4.346;2023-06-19T09:27:13;12.93;;;9.07;;
25409;SDS011;13339;50.840;4.346;2023-06-19T09:29:47;23.97;;;10.47;;
25409;SDS011;13339;50.840;4.346;2023-06-19T09:34:49;16.63;;;10.00;;
25409;SDS011;13339;50.840;4.346;2023-06-19T09:37:23;21.87;;;9.80;;
25409;SDS011;13339;50.840;4.346;2023-06-19T09:39:56;17.70;;;9.90;;
25409;SDS011;13339;50.840;4.346;2023-06-19T09:44:55;14.93;;;10.17;;
25409;SDS011;13339;50.840;4.346;2023-06-19T09:47:43;15.10;;;8.37;;
25409;SDS011;13339;50.840;4.346;2023-06-19T09:50:13;14.40;;;8.97;;
25409;SDS011;13339;50.840;4.346;2023-06-19T09:52:40;16.83;;;9.87;;
25409;SDS011;13339;50.840;4.346;2023-06-19T09:55:07;26.53;;;11.63;;
25409;SDS011;13339;50.840;4.346;2023-06-19T09:57:35;14.32;;;10.77;;
25409;SDS011;13339;50.840;4.346;2023-06-19T10:00:02;11.50;;;9.90;;
25409;SDS011;13339;50.840;4.346;2023-06-19T10:02:34;13.50;;;10.18;;
25409;SDS011;13339;50.840;4.346;2023-06-19T10:05:00;18.67;;;10.65;;
25409;SDS011;13339;50.840;4.346;2023-06-19T10:07:32;17.20;;;10.32;;
25409;SDS011;13339;50.840;4.346;2023-06-19T10:09:59;20.23;;;10.75;;
25409;SDS011;13339;50.840;4.346;2023-06-19T10:12:38;23.40;;;11.68;;
25409;SDS011;13339;50.840;4.346;2023-06-19T10:15:09;16.63;;;10.18;;
25409;SDS011;13339;50.840;4.346;2023-06-19T10:17:42;20.95;;;10.50;;
25409;SDS011;13339;50.840;4.346;2023-06-19T10:20:19;18.42;;;10.38;;
25409;SDS011;13339;50.840;4.346;2023-06-19T10:23:07;18.40;;;10.45;;
25409;SDS011;13339;50.840;4.346;2023-06-19T10:25:37;17.30;;;9.98;;
25409;SDS011;13339;50.840;4.346;2023-06-19T10:28:15;16.13;;;10.15;;
25409;SDS011;13339;50.840;4.346;2023-06-19T10:30:42;13.35;;;11.10;;
25409;SDS011;13339;50.840;4.346;2023-06-19T10:33:08;14.25;;;10.40;;
25409;SDS011;13339;50.840;4.346;2023-06-19T10:35:38;21.93;;;10.47;;
25409;SDS011;13339;50.840;4.346;2023-06-19T10:38:05;17.13;;;9.77;;
25409;SDS011;13339;50.840;4.346;2023-06-19T10:40:31;18.97;;;10.73;;
25409;SDS011;13339;50.840;4.346;2023-06-19T10:42:56;14.23;;;10.52;;
25409;SDS011;13339;50.840;4.346;2023-06-19T10:45:22;12.32;;;9.32;;
25409;SDS011;13339;50.840;4.346;2023-06-19T10:47:53;12.07;;;10.05;;
25409;SDS011;13339;50.840;4.346;2023-06-19T10:50:20;12.18;;;8.45;;
25409;SDS011;13339;50.840;4.346;2023-06-19T10:52:46;13.73;;;8.52;;
25409;SDS011;13339;50.840;4.346;2023-06-19T10:55:13;12.90;;;9.75;;
25409;SDS011;13339;50.840;4.346;2023-06-19T10:57:39;20.48;;;9.43;;
25409;SDS011;13339;50.840;4.346;2023-06-19T11:00:09;15.18;;;8.82;;
25409;SDS011;13339;50.840;4.346;2023-06-19T11:02:39;12.45;;;9.18;;
25409;SDS011;13339;50.840;4.346;2023-06-19T11:05:11;13.18;;;9.85;;
25409;SDS011;13339;50.840;4.346;2023-06-19T11:07:37;14.55;;;9.05;;
25409;SDS011;13339;50.840;4.346;2023-06-19T11:10:03;18.13;;;9.38;;
25409;SDS011;13339;50.840;4.346;2023-06-19T11:12:31;14.88;;;10.38;;
25409;SDS011;13339;50.840;4.346;2023-06-19T11:14:58;14.75;;;10.68;;
25409;SDS011;13339;50.840;4.346;2023-06-19T11:17:24;17.08;;;10.38;;
25409;SDS011;13339;50.840;4.346;2023-06-19T11:19:50;17.13;;;11.70;;
25409;SDS011;13339;50.840;4.346;2023-06-19T11:22:16;17.55;;;11.70;;
25409;SDS011;13339;50.840;4.346;2023-06-19T11:24:45;19.45;;;12.50;;
25409;SDS011;13339;50.840;4.346;2023-06-19T11:27:21;21.77;;;13.25;;
25409;SDS011;13339;50.840;4.346;2023-06-19T11:29:57;19.58;;;12.30;;
25409;SDS011;13339;50.840;4.346;2023-06-19T11:32:24;17.42;;;11.77;;
25409;SDS011;13339;50.840;4.346;2023-06-19T11:34:56;17.85;;;12.07;;
25409;SDS011;13339;50.840;4.346;2023-06-19T11:37:22;21.65;;;12.90;;
25409;SDS011;13339;50.840;4.346;2023-06-19T11:39:49;19.92;;;11.52;;
25409;SDS011;13339;50.840;4.346;2023-06-19T11:42:17;17.58;;;11.05;;
25409;SDS011;13339;50.840;4.346;2023-06-19T11:47:21;20.77;;;11.15;;
25409;SDS011;13339;50.840;4.346;2023-06-19T11:49:47;20.55;;;11.63;;
25409;SDS011;13339;50.840;4.346;2023-06-19T11:52:14;15.90;;;10.30;;
25409;SDS011;13339;50.840;4.346;2023-06-19T11:54:40;16.98;;;9.38;;
25409;SDS011;13339;50.840;4.346;2023-06-19T11:57:05;19.02;;;9.10;;
25409;SDS011;13339;50.840;4.346;2023-06-19T11:59:31;11.63;;;8.38;;
25409;SDS011;13339;50.840;4.346;2023-06-19T12:01:57;15.27;;;9.25;;
25409;SDS011;13339;50.840;4.346;2023-06-19T12:04:24;13.98;;;8.07;;
25409;SDS011;13339;50.840;4.346;2023-06-19T12:06:51;12.60;;;8.02;;
25409;SDS011;13339;50.840;4.346;2023-06-19T12:09:17;14.77;;;8.02;;
25409;SDS011;13339;50.840;4.346;2023-06-19T12:11:43;13.35;;;7.18;;
25409;SDS011;13339;50.840;4.346;2023-06-19T12:14:08;15.88;;;8.25;;
25409;SDS011;13339;50.840;4.346;2023-06-19T12:16:34;12.32;;;8.65;;
25409;SDS011;13339;50.840;4.346;2023-06-19T12:18:59;13.90;;;8.40;;
25409;SDS011;13339;50.840;4.346;2023-06-19T12:21:25;13.80;;;9.50;;
25409;SDS011;13339;50.840;4.346;2023-06-19T12:23:50;14.82;;;10.43;;
25409;SDS011;13339;50.840;4.346;2023-06-19T12:26:16;9.68;;;7.75;;
25409;SDS011;13339;50.840;4.346;2023-06-19T12:28:41;14.07;;;7.90;;
25409;SDS011;13339;50.840;4.346;2023-06-19T12:31:07;11.25;;;7.78;;
25409;SDS011;13339;50.840;4.346;2023-06-19T12:33:33;11.43;;;7.90;;
25409;SDS011;13339;50.840;4.346;2023-06-19T12:35:59;17.08;;;7.88;;
25409;SDS011;13339;50.840;4.346;2023-06-19T12:38:25;17.73;;;8.07;;
25409;SDS011;13339;50.840;4.346;2023-06-19T12:40:51;8.07;;;6.43;;
25409;SDS011;13339;50.840;4.346;2023-06-19T12:43:17;9.38;;;7.00;;
25409;SDS011;13339;50.840;4.346;2023-06-19T12:45:42;11.68;;;7.75;;
25409;SDS011;13339;50.840;4.346;2023-06-19T12:48:09;14.73;;;7.43;;
25409;SDS011;13339;50.840;4.346;2023-06-19T12:50:36;12.93;;;7.03;;
25409;SDS011;13339;50.840;4.346;2023-06-19T12:53:01;13.50;;;7.13;;
25409;SDS011;13339;50.840;4.346;2023-06-19T12:55:27;18.05;;;7.75;;
25409;SDS011;13339;50.840;4.346;2023-06-19T12:57:53;15.23;;;6.70;;
25409;SDS011;13339;50.840;4.346;2023-06-19T13:00:18;8.60;;;6.20;;
25409;SDS011;13339;50.840;4.346;2023-06-19T13:02:44;12.45;;;6.25;;
25409;SDS011;13339;50.840;4.346;2023-06-19T13:05:11;8.15;;;5.70;;
25409;SDS011;13339;50.840;4.346;2023-06-19T13:07:37;9.75;;;6.35;;
25409;SDS011;13339;50.840;4.346;2023-06-19T13:10:03;9.80;;;6.35;;
25409;SDS011;13339;50.840;4.346;2023-06-19T13:12:31;9.18;;;6.85;;
25409;SDS011;13339;50.840;4.346;2023-06-19T13:14:56;9.82;;;6.75;;
25409;SDS011;13339;50.840;4.346;2023-06-19T13:17:22;10.55;;;6.20;;
25409;SDS011;13339;50.840;4.346;2023-06-19T13:19:48;9.02;;;6.75;;
25409;SDS011;13339;50.840;4.346;2023-06-19T13:22:14;11.43;;;6.97;;
25409;SDS011;13339;50.840;4.346;2023-06-19T13:24:39;10.30;;;6.57;;
25409;SDS011;13339;50.840;4.346;2023-06-19T13:27:05;10.65;;;6.43;;
25409;SDS011;13339;50.840;4.346;2023-06-19T13:29:30;8.93;;;7.22;;
25409;SDS011;13339;50.840;4.346;2023-06-19T13:31:56;8.88;;;6.38;;
25409;SDS011;13339;50.840;4.346;2023-06-19T13:34:23;7.43;;;5.85;;
25409;SDS011;13339;50.840;4.346;2023-06-19T13:36:48;11.10;;;6.10;;
25409;SDS011;13339;50.840;4.346;2023-06-19T13:39:14;8.13;;;5.32;;
25409;SDS011;13339;50.840;4.346;2023-06-19T13:41:40;11.75;;;5.68;;
25409;SDS011;13339;50.840;4.346;2023-06-19T13:44:06;14.20;;;6.20;;
25409;SDS011;13339;50.840;4.346;2023-06-19T13:46:31;9.65;;;6.30;;
25409;SDS011;13339;50.840;4.346;2023-06-19T13:48:57;8.73;;;5.75;;
25409;SDS011;13339;50.840;4.346;2023-06-19T13:51:23;10.57;;;7.07;;
25409;SDS011;13339;50.840;4.346;2023-06-19T13:53:49;11.10;;;7.13;;
25409;SDS011;13339;50.840;4.346;2023-06-19T13:56:17;9.88;;;6.00;;
25409;SDS011;13339;50.840;4.346;2023-06-19T13:58:43;10.93;;;5.97;;
25409;SDS011;13339;50.840;4.346;2023-06-19T14:01:09;7.97;;;6.18;;
25409;SDS011;13339;50.840;4.346;2023-06-19T14:03:36;9.65;;;5.82;;
25409;SDS011;13339;50.840;4.346;2023-06-19T14:06:04;10.10;;;5.68;;
25409;SDS011;13339;50.840;4.346;2023-06-19T14:08:30;12.35;;;6.07;;
25409;SDS011;13339;50.840;4.346;2023-06-19T14:10:55;8.95;;;5.80;;
25409;SDS011;13339;50.840;4.346;2023-06-19T14:13:21;6.82;;;6.07;;
25409;SDS011;13339;50.840;4.346;2023-06-19T14:15:47;8.52;;;6.18;;
25409;SDS011;13339;50.840;4.346;2023-06-19T14:18:13;14.85;;;6.05;;
25409;SDS011;13339;50.840;4.346;2023-06-19T14:20:39;9.38;;;5.93;;
25409;SDS011;13339;50.840;4.346;2023-06-19T14:23:06;12.52;;;5.75;;
25409;SDS011;13339;50.840;4.346;2023-06-19T14:25:32;13.70;;;5.78;;
25409;SDS011;13339;50.840;4.346;2023-06-19T14:27:59;10.40;;;5.93;;
25409;SDS011;13339;50.840;4.346;2023-06-19T14:30:24;9.40;;;5.65;;
25409;SDS011;13339;50.840;4.346;2023-06-19T14:32:50;7.07;;;5.32;;
25409;SDS011;13339;50.840;4.346;2023-06-19T14:35:16;7.13;;;5.55;;
25409;SDS011;13339;50.840;4.346;2023-06-19T14:37:42;11.57;;;5.20;;
25409;SDS011;13339;50.840;4.346;2023-06-19T14:40:08;8.63;;;5.47;;
25409;SDS011;13339;50.840;4.346;2023-06-19T14:42:34;7.10;;;4.78;;